Startpagina
METAR-TAF:

METAR-TAF

Vliegvelden :

Challis Airport

Challis, Idaho, Verenigde Staten

breedte: 44-31-22N, lengte: 114-12-54W, hoogte: 1546 m

Actueel weer

Dit bericht is 32 minuten geleden gemaakt, om 05:55 UTC
Wind 4 kt uit het noorden
Temperatuur 10°C
Vochtigheid 66%
Druk 1009 hPa
Zicht: 16.1 km
Verspreide wolken op 7000 ft
Geheel bewolkt op 10000 ft
lichte regen

METAR: KLLJ 190555Z AUTO 35004KT 10SM -RA SCT070 OVC100 10/04 A2981 RMK AO2 RAB51 SLP064 P0000 60001 T01000044 10139 20100 50003

Tijdstip: 00:27 (06:27 UTC)


TAF: ontbreekt

Waarnemingen en weersverwachtingen van meer dan 4000 vliegvelden (METAR en TAF).

De beschikbare stations zijn de gele en rode punten op de kaart.

Ga met uw muis naar het station om de naam te zien.

Klik dan om waarnemingen en weersverwachtingen te zien.

kaart wijzigen: klik op de groene knoppen met een zwart kruis om in te zoomen, op de groene knop met een streepje om uit te zoomen of op de groene pijlen voor aangrenzende kaarten.


METAR-TAF: